Stockton, California
Current Conditions -  °F | °C
As of 6:55 PM on Tuesday 21 Oct 2014 (Local Time) from KSCK Reporting Station
Clear Clear  
Wind Chill: 65°   Ceiling: Unl
Heat Index: 65°   Visibility: 10mi
Dew Point: 42°   Wind: 6mph
Humidity: 43%   Direction: 320°NW
Pressure: 29.99"   Gusts: NA
Location:  37.95°N, 121.29°W
Report Text: KSCK 220155Z 32005KT 10SM CLR 18/06 A2999 RMK AO2 SLP154 T01830056
Loading
Personal Weather Stations






























Interactive Weather Map New forecast layout! Learn more

10-Day Weather Forecast

Advertisements
Track Severe Weather on mobile